.
WxDataArchive / Data Records for 2014-01-16
2014-01-15 January 2014 2014-01-17

Data Records for Thursday, 16 January 2014

Time	Temp	Chill	HIndex	Humid	Dewpt	 Wind 	HiWind	WindDir	Rain 	Barom 
-----	----	-----	------	-----	-----	------	------	-------	-----	----- 
00:00	19.5	19.5	19.5	67	10.4	0	3	248	0.00	30.014 
00:05	19.5	19.5	19.5	67	10.4	0	2	248	0.00	30.014 
00:10	19.5	19.5	19.5	68	10.7	0	1	248	0.00	30.014 
00:15	19.5	19.5	19.5	69	11.0	0	2	248	0.00	30.012 
00:20	19.5	19.5	19.5	69	11.0	0	1	248	0.00	30.012 
00:25	19.5	19.5	19.5	69	11.0	1	5	248	0.00	30.012 
00:30	19.4	19.4	19.4	68	10.6	0	3	248	0.00	29.995 
00:35	19.4	19.4	19.4	68	10.6	0	2	248	0.00	29.995 
00:40	19.4	19.4	19.4	69	10.9	0	1	248	0.00	29.995 
00:45	19.2	19.2	19.2	69	10.7	1	3	248	0.00	29.980 
00:50	19.1	19.1	19.1	68	10.3	1	3	248	0.00	29.980 
00:55	19.1	19.1	19.1	69	10.6	0	3	90	0.00	29.980 
01:00	19.1	19.1	19.1	69	10.6	1	5	248	0.00	29.979 
01:05	19.1	19.1	19.1	69	10.6	1	4	248	0.00	29.979 
01:10	19.1	19.1	19.1	69	10.6	1	7	248	0.00	29.979 
01:15	19.1	19.1	19.1	69	10.6	2	7	248	0.00	29.976 
01:20	19.1	19.1	19.1	69	10.6	2	6	248	0.00	29.976 
01:25	19.1	19.1	19.1	69	10.6	0	2	248	0.00	29.976 
01:30	19.1	19.1	19.1	70	11.0	1	3	248	0.00	29.967 
01:35	19.1	19.1	19.1	69	10.6	1	3	248	0.00	29.967 
01:40	19.1	19.1	19.1	69	10.6	1	6	248	0.00	29.967 
01:45	19.1	19.1	19.1	69	10.6	1	3	248	0.00	29.979 
01:50	19.1	19.1	19.1	69	10.6	2	7	248	0.00	29.979 
01:55	18.9	18.9	18.9	69	10.4	1	4	248	0.00	29.979 
02:00	18.9	18.9	18.9	70	10.8	1	3	248	0.00	29.965 
02:05	18.9	18.9	18.9	70	10.8	1	4	45	0.00	29.965 
02:10	19.1	19.1	19.1	70	11.0	1	3	0	0.00	29.965 
02:15	19.1	19.1	19.1	70	11.0	0	2	248	0.00	29.973 
02:20	19.1	19.1	19.1	71	11.3	0	2	248	0.00	29.973 
02:25	19.2	19.2	19.2	71	11.4	1	6	270	0.00	29.973 
02:30	19.2	19.2	19.2	71	11.4	1	6	270	0.00	29.978 
02:35	18.9	18.9	18.9	69	10.4	2	10	248	0.00	29.978 
02:40	18.6	18.6	18.6	69	10.2	2	6	248	0.00	29.978 
02:45	18.4	18.4	18.4	69	10.0	2	7	248	0.00	29.981 
02:50	18.3	18.3	18.3	70	10.2	1	3	248	0.00	29.981 
02:55	18.1	18.1	18.1	70	10.0	1	5	248	0.00	29.981 
03:00	18.1	18.1	18.1	71	10.3	1	5	248	0.00	29.980 
03:05	18.1	18.1	18.1	71	10.3	0	2	248	0.00	29.980 
03:10	18.1	18.1	18.1	71	10.3	0	5	248	0.00	29.980 
03:15	18.0	18.0	18.0	71	10.2	1	4	90	0.00	29.963 
03:20	17.8	17.8	17.8	72	10.3	1	4	90	0.00	29.963 
03:25	17.8	17.8	17.8	72	10.3	1	4	248	0.00	29.963 
03:30	17.7	17.7	17.7	72	10.2	0	1	248	0.00	29.951 
03:35	17.5	17.5	17.5	73	10.3	0	2	248	0.00	29.951 
03:40	17.5	17.5	17.5	73	10.3	0	3	248	0.00	29.951 
03:45	17.3	17.3	17.3	73	10.2	0	2	248	0.00	29.950 
03:50	17.3	17.3	17.3	73	10.2	0	2	248	0.00	29.950 
03:55	17.3	17.3	17.3	74	10.5	0	1	248	0.00	29.950 
04:00	17.2	17.2	17.2	74	10.4	0	2	248	0.00	29.939 
04:05	17.2	17.2	17.2	75	10.7	0	3	202	0.00	29.939 
04:10	17.3	17.3	17.3	75	10.8	0	2	225	0.00	29.939 
04:15	17.3	17.3	17.3	75	10.8	0	2	112	0.00	29.922 
04:20	17.5	17.5	17.5	75	11.0	1	4	112	0.00	29.922 
04:25	17.7	17.7	17.7	75	11.1	1	6	90	0.00	29.922 
04:30	17.7	17.7	17.7	75	11.1	1	3	90	0.00	29.902 
04:35	17.8	17.8	17.8	75	11.2	2	5	90	0.00	29.902 
04:40	17.8	17.8	17.8	75	11.2	2	6	112	0.00	29.902 
04:45	18.0	18.0	18.0	75	11.4	1	4	112	0.00	29.889 
04:50	18.1	18.1	18.1	75	11.5	0	2	22	0.00	29.889 
04:55	18.3	18.3	18.3	75	11.7	0	3	112	0.00	29.889 
05:00	18.4	18.4	18.4	75	11.8	1	3	112	0.00	29.885 
05:05	18.6	18.6	18.6	75	12.0	0	4	112	0.00	29.885 
05:10	18.6	18.6	18.6	75	12.0	0	4	112	0.00	29.885 
05:15	18.8	18.8	18.8	75	12.2	1	4	68	0.00	29.883 
05:20	18.8	18.8	18.8	75	12.2	1	5	90	0.00	29.883 
05:25	18.9	18.9	18.9	75	12.3	0	3	68	0.00	29.883 
05:30	18.9	18.9	18.9	75	12.3	1	3	68	0.00	29.871 
05:35	19.1	19.1	19.1	75	12.5	1	4	68	0.00	29.871 
05:40	19.1	19.1	19.1	74	12.2	1	6	68	0.00	29.871 
05:45	19.2	19.2	19.2	74	12.3	1	5	68	0.00	29.863 
05:50	19.2	19.2	19.2	74	12.3	0	2	270	0.00	29.863 
05:55	19.4	19.4	19.4	74	12.5	0	3	248	0.00	29.863 
06:00	19.4	19.4	19.4	74	12.5	1	4	135	0.00	29.860 
06:05	19.5	19.5	19.5	74	12.6	1	5	90	0.00	29.860 
06:10	19.5	19.5	19.5	74	12.6	1	6	90	0.00	29.860 
06:15	19.7	19.7	19.7	74	12.8	0	3	225	0.00	29.855 
06:20	19.9	19.9	19.9	73	12.7	1	3	68	0.00	29.855 
06:25	19.9	19.9	19.9	73	12.7	1	4	45	0.00	29.855 
06:30	20.0	20.0	20.0	73	12.8	1	3	68	0.00	29.854 
06:35	20.2	20.2	20.2	73	13.0	1	4	45	0.00	29.854 
06:40	20.2	20.2	20.2	73	13.0	1	3	112	0.00	29.854 
06:45	20.3	20.3	20.3	73	13.1	1	4	90	0.00	29.848 
06:50	20.3	20.3	20.3	73	13.1	0	3	68	0.00	29.848 
06:55	20.5	20.5	20.5	73	13.2	0	4	90	0.00	29.848 
07:00	20.5	20.5	20.5	74	13.6	0	2	90	0.00	29.838 
07:05	20.6	20.6	20.6	73	13.3	2	5	112	0.00	29.838 
07:10	20.8	20.8	20.8	73	13.5	1	4	270	0.00	29.838 
07:15	20.8	20.8	20.8	73	13.5	1	4	90	0.00	29.834 
07:20	21.0	21.0	21.0	73	13.7	0	2	248	0.00	29.834 
07:25	21.1	21.1	21.1	73	13.8	1	4	68	0.00	29.834 
07:30	21.1	21.1	21.1	73	13.8	2	5	90	0.00	29.826 
07:35	21.3	21.3	21.3	73	14.0	2	10	90	0.00	29.826 
07:40	21.3	21.3	21.3	73	14.0	1	4	90	0.00	29.826 
07:45	21.4	21.4	21.4	73	14.1	2	6	90	0.00	29.823 
07:50	21.4	21.4	21.4	73	14.1	2	5	90	0.00	29.823 
07:55	21.6	21.6	21.6	72	14.0	2	6	68	0.00	29.823 
08:00	21.6	21.6	21.6	72	14.0	1	5	90	0.00	29.815 
08:05	21.8	21.8	21.8	72	14.2	1	5	112	0.00	29.815 
08:10	21.9	21.9	21.9	72	14.3	2	6	112	0.00	29.815 
08:15	22.1	22.1	22.1	72	14.5	2	7	90	0.00	29.807 
08:20	22.2	22.2	22.2	71	14.3	3	6	90	0.00	29.807 
08:25	22.2	22.2	22.2	72	14.6	1	5	90	0.00	29.807 
08:30	22.4	22.4	22.4	72	14.8	1	4	112	0.00	29.808 
08:35	22.5	22.5	22.5	71	14.5	1	5	90	0.00	29.808 
08:40	22.7	22.7	22.7	72	15.1	2	6	90	0.00	29.808 
08:45	22.7	22.7	22.7	72	15.1	2	10	90	0.00	29.804 
08:50	22.9	22.9	22.9	73	15.6	2	5	90	0.00	29.804 
08:55	22.9	22.9	22.9	74	15.9	2	7	112	0.00	29.804 
09:00	22.7	22.7	22.7	76	16.3	1	5	90	0.00	29.806 
09:05	22.7	22.7	22.7	78	16.9	1	3	292	0.00	29.806 
09:10	22.5	22.5	22.5	80	17.3	1	5	112	0.00	29.806 
09:15	22.4	22.4	22.4	81	17.5	2	6	90	0.00	29.806 
09:20	22.2	22.2	22.2	83	17.8	3	6	112	0.00	29.806 
09:25	22.2	22.2	22.2	84	18.1	2	6	90	0.00	29.806 
09:30	22.1	22.1	22.1	84	18.0	3	8	90	0.00	29.805 
09:35	22.1	22.1	22.1	85	18.3	2	5	68	0.00	29.805 
09:40	22.1	22.1	22.1	86	18.6	2	7	90	0.00	29.805 
09:45	22.1	22.1	22.1	86	18.6	2	9	90	0.00	29.802 
09:50	22.1	22.1	22.1	86	18.6	2	6	90	0.00	29.802 
09:55	22.2	22.2	22.2	87	18.9	1	6	112	0.00	29.802 
10:00	22.2	22.2	22.2	87	18.9	2	6	90	0.00	29.797 
10:05	22.4	22.4	22.4	87	19.1	2	5	90	0.00	29.797 
10:10	22.4	22.4	22.4	87	19.1	2	7	90	0.00	29.797 
10:15	22.5	22.5	22.5	87	19.2	2	7	90	0.00	29.794 
10:20	22.5	22.5	22.5	87	19.2	2	6	90	0.00	29.794 
10:25	22.5	22.5	22.5	87	19.2	3	7	90	0.00	29.794 
10:30	22.7	22.7	22.7	87	19.4	2	6	90	0.00	29.787 
10:35	22.9	22.9	22.9	87	19.6	3	11	90	0.00	29.787 
10:40	22.9	22.9	22.9	87	19.6	2	6	112	0.00	29.787 
10:45	22.9	22.9	22.9	87	19.6	2	5	112	0.00	29.780 
10:50	23.0	23.0	23.0	87	19.7	3	6	90	0.00	29.780 
10:55	23.0	23.0	23.0	87	19.7	2	9	112	0.00	29.780 
11:00	23.2	23.2	23.2	87	19.9	2	6	90	0.00	29.776 
11:05	23.2	23.2	23.2	88	20.2	3	9	90	0.00	29.776 
11:10	23.2	23.2	23.2	88	20.2	2	9	90	0.00	29.776 
11:15	23.3	23.3	23.3	88	20.3	2	6	90	0.00	29.764 
11:20	23.3	23.3	23.3	88	20.3	2	6	90	0.00	29.764 
11:25	23.5	23.5	23.5	88	20.5	3	9	90	0.00	29.764 
11:30	23.5	23.5	23.5	88	20.5	2	6	112	0.00	29.757 
11:35	23.6	23.6	23.6	88	20.6	2	7	90	0.00	29.757 
11:40	23.8	23.8	23.8	88	20.8	2	7	292	0.00	29.757 
11:45	23.8	23.8	23.8	88	20.8	1	5	90	0.00	29.749 
11:50	23.9	23.9	23.9	88	20.9	2	6	90	0.00	29.749 
11:55	23.9	23.9	23.9	88	20.9	2	7	112	0.00	29.749 
12:00	23.9	23.9	23.9	88	20.9	3	10	90	0.00	29.742 
12:05	23.9	23.9	23.9	88	20.9	2	6	90	0.00	29.742 
12:10	24.1	24.1	24.1	88	21.1	2	6	45	0.00	29.742 
12:15	24.1	24.1	24.1	88	21.1	2	7	112	0.00	29.734 
12:20	24.2	24.2	24.2	88	21.2	1	5	90	0.00	29.734 
12:25	24.2	24.2	24.2	88	21.2	2	5	90	0.00	29.734 
12:30	24.4	24.4	24.4	89	21.6	1	6	68	0.00	29.725 
12:35	24.4	24.4	24.4	89	21.6	1	7	90	0.00	29.725 
12:40	24.4	24.4	24.4	89	21.6	1	4	45	0.00	29.725 
12:45	24.4	24.4	24.4	88	21.4	1	4	45	0.00	29.712 
12:50	24.5	24.5	24.5	89	21.7	1	5	90	0.00	29.712 
12:55	24.5	24.5	24.5	89	21.7	1	9	112	0.00	29.712 
13:00	24.7	24.7	24.7	89	21.9	1	5	68	0.00	29.708 
13:05	24.7	24.7	24.7	89	21.9	2	9	68	0.00	29.708 
13:10	24.8	24.8	24.8	89	22.0	2	8	248	0.00	29.708 
13:15	25.0	25.0	25.0	89	22.2	1	2	270	0.00	29.696 
13:20	25.1	25.1	25.1	89	22.3	1	4	0	0.00	29.696 
13:25	25.1	25.1	25.1	89	22.3	1	5	45	0.00	29.696 
13:30	25.1	25.1	25.1	89	22.3	2	6	68	0.00	29.690 
13:35	25.1	25.1	25.1	88	22.1	2	5	22	0.00	29.690 
13:40	25.1	25.1	25.1	88	22.1	2	5	270	0.00	29.690 
13:45	25.3	25.3	25.3	88	22.3	1	6	68	0.00	29.681 
13:50	25.4	25.4	25.4	88	22.4	1	5	248	0.00	29.681 
13:55	25.4	25.4	25.4	88	22.4	2	9	270	0.00	29.681 
14:00	25.6	25.6	25.6	88	22.5	1	3	248	0.00	29.675 
14:05	25.7	25.7	25.7	88	22.6	1	4	68	0.00	29.675 
14:10	25.7	25.7	25.7	87	22.4	1	4	45	0.00	29.675 
14:15	25.6	25.6	25.6	87	22.3	2	11	315	0.00	29.668 
14:20	25.6	25.6	25.6	87	22.3	2	5	270	0.00	29.668 
14:25	25.6	25.6	25.6	88	22.5	1	4	90	0.00	29.668 
14:30	25.6	25.6	25.6	88	22.5	1	4	270	0.00	29.665 
14:35	25.7	25.7	25.7	88	22.6	1	4	45	0.00	29.665 
14:40	25.7	25.7	25.7	88	22.6	1	4	248	0.00	29.665 
14:45	25.7	25.7	25.7	88	22.6	1	5	248	0.00	29.661 
14:50	25.7	25.7	25.7	88	22.6	1	3	90	0.00	29.661 
14:55	25.7	25.7	25.7	88	22.6	1	5	90	0.00	29.661 
15:00	25.7	25.7	25.7	88	22.6	1	3	90	0.00	29.657 
15:05	25.7	25.7	25.7	88	22.6	1	4	90	0.00	29.657 
15:10	25.7	25.7	25.7	88	22.6	1	3	90	0.00	29.657 
15:15	25.7	25.7	25.7	88	22.6	1	6	248	0.00	29.656 
15:20	25.8	25.8	25.8	88	22.7	1	4	22	0.00	29.656 
15:25	26.0	26.0	26.0	88	22.9	1	5	90	0.00	29.656 
15:30	26.3	26.3	26.3	88	23.2	1	6	270	0.00	29.655 
15:35	26.3	26.3	26.3	87	23.0	1	5	270	0.00	29.655 
15:40	26.3	26.3	26.3	87	23.0	1	3	90	0.00	29.655 
15:45	26.1	26.1	26.1	87	22.8	1	5	68	0.00	29.657 
15:50	26.1	26.1	26.1	86	22.5	1	3	248	0.00	29.657 
15:55	26.3	26.3	26.3	86	22.7	1	5	225	0.00	29.657 
16:00	26.3	26.3	26.3	86	22.7	1	4	270	0.00	29.665 
16:05	26.1	26.1	26.1	86	22.5	2	6	248	0.00	29.665 
16:10	26.3	26.3	26.3	86	22.7	1	4	248	0.00	29.665 
16:15	26.3	26.3	26.3	85	22.4	1	5	248	0.00	29.664 
16:20	26.3	26.3	26.3	85	22.4	1	4	248	0.00	29.664 
16:25	26.3	26.3	26.3	85	22.4	1	4	248	0.00	29.664 
16:30	26.3	26.3	26.3	85	22.4	2	6	270	0.00	29.663 
16:35	26.4	26.4	26.4	85	22.5	1	5	90	0.00	29.663 
16:40	26.4	26.4	26.4	85	22.5	1	4	248	0.00	29.663 
16:45	26.4	26.4	26.4	85	22.5	0	2	45	0.00	29.664 
16:50	26.4	26.4	26.4	85	22.5	0	4	270	0.00	29.664 
16:55	26.4	26.4	26.4	85	22.5	0	2	0	0.00	29.664 
17:00	26.4	26.4	26.4	85	22.5	1	3	270	0.00	29.669 
17:05	26.4	26.4	26.4	85	22.5	0	4	338	0.00	29.669 
17:10	26.4	26.4	26.4	85	22.5	1	4	45	0.00	29.669 
17:15	26.6	26.6	26.6	85	22.7	1	4	248	0.00	29.666 
17:20	26.6	26.6	26.6	85	22.7	1	6	270	0.00	29.666 
17:25	26.6	26.6	26.6	85	22.7	1	6	270	0.00	29.666 
17:30	26.6	26.6	26.6	85	22.7	1	4	270	0.00	29.671 
17:35	26.6	26.6	26.6	85	22.7	1	3	225	0.00	29.671 
17:40	26.6	26.6	26.6	85	22.7	1	4	315	0.00	29.671 
17:45	26.6	26.6	26.6	85	22.7	1	7	248	0.00	29.674 
17:50	26.6	26.6	26.6	85	22.7	0	2	248	0.00	29.674 
17:55	26.6	26.6	26.6	85	22.7	1	8	248	0.00	29.674 
18:00	26.6	26.6	26.6	86	23.0	1	4	90	0.00	29.675 
18:05	26.6	26.6	26.6	86	23.0	1	3	90	0.00	29.675 
18:10	26.6	26.6	26.6	86	23.0	1	3	270	0.00	29.675 
18:15	26.6	26.6	26.6	86	23.0	1	3	292	0.00	29.676 
18:20	26.6	26.6	26.6	86	23.0	1	3	270	0.00	29.676 
18:25	26.7	26.7	26.7	86	23.1	0	3	270	0.00	29.676 
18:30	26.7	26.7	26.7	86	23.1	1	4	248	0.00	29.674 
18:35	26.7	26.7	26.7	86	23.1	1	4	315	0.00	29.674 
18:40	26.7	26.7	26.7	86	23.1	1	5	248	0.00	29.674 
18:45	26.9	26.9	26.9	86	23.3	1	4	292	0.00	29.673 
18:50	26.9	26.9	26.9	85	23.0	1	3	338	0.00	29.673 
18:55	26.9	26.9	26.9	85	23.0	1	4	248	0.00	29.673 
19:00	27.0	27.0	27.0	86	23.4	1	5	270	0.00	29.675 
19:05	26.9	26.9	26.9	86	23.3	1	2	45	0.00	29.675 
19:10	26.9	26.9	26.9	87	23.6	1	5	90	0.00	29.675 
19:15	26.9	26.9	26.9	87	23.6	1	4	90	0.00	29.673 
19:20	26.9	26.9	26.9	87	23.6	1	4	270	0.00	29.673 
19:25	26.9	26.9	26.9	87	23.6	1	6	270	0.00	29.673 
19:30	27.0	27.0	27.0	86	23.4	0	2	45	0.00	29.672 
19:35	27.0	27.0	27.0	86	23.4	0	3	292	0.00	29.672 
19:40	27.2	27.2	27.2	86	23.6	1	5	270	0.00	29.672 
19:45	27.2	27.2	27.2	85	23.3	1	8	90	0.00	29.673 
19:50	27.3	27.3	27.3	85	23.4	1	3	248	0.00	29.673 
19:55	27.3	27.3	27.3	85	23.4	1	3	248	0.00	29.673 
20:00	27.3	27.3	27.3	85	23.4	1	3	270	0.00	29.673 
20:05	27.3	27.3	27.3	85	23.4	1	4	270	0.00	29.673 
20:10	27.3	27.3	27.3	86	23.7	1	4	270	0.00	29.673 
20:15	27.2	27.2	27.2	87	23.9	1	5	90	0.00	29.669 
20:20	27.2	27.2	27.2	87	23.9	1	2	315	0.00	29.669 
20:25	27.2	27.2	27.2	88	24.1	0	2	270	0.00	29.669 
20:30	27.2	27.2	27.2	88	24.1	0	2	270	0.00	29.671 
20:35	27.2	27.2	27.2	88	24.1	1	5	270	0.00	29.671 
20:40	27.2	27.2	27.2	88	24.1	1	4	112	0.00	29.671 
20:45	27.2	27.2	27.2	88	24.1	1	4	248	0.00	29.667 
20:50	27.2	27.2	27.2	88	24.1	1	6	338	0.00	29.667 
20:55	27.2	27.2	27.2	89	24.4	1	4	248	0.00	29.667 
21:00	27.3	27.3	27.3	89	24.5	0	4	270	0.00	29.671 
21:05	27.3	27.3	27.3	89	24.5	1	4	248	0.00	29.671 
21:10	27.3	27.3	27.3	89	24.5	0	1	270	0.00	29.671 
21:15	27.3	27.3	27.3	89	24.5	0	3	270	0.00	29.675 
21:20	27.3	27.3	27.3	89	24.5	0	3	248	0.00	29.675 
21:25	27.5	27.5	27.5	90	25.0	0	3	248	0.00	29.675 
21:30	27.5	27.5	27.5	90	25.0	1	3	270	0.00	29.673 
21:35	27.6	27.6	27.6	90	25.1	1	4	248	0.00	29.673 
21:40	27.6	27.6	27.6	90	25.1	1	4	248	0.00	29.673 
21:45	27.8	27.8	27.8	90	25.3	1	4	248	0.00	29.674 
21:50	27.9	27.9	27.9	90	25.4	0	4	248	0.00	29.674 
21:55	27.9	27.9	27.9	90	25.4	0	3	248	0.00	29.674 
22:00	28.1	28.1	28.1	91	25.8	0	4	248	0.00	29.677 
22:05	28.1	28.1	28.1	91	25.8	1	4	248	0.00	29.677 
22:10	28.2	28.2	28.2	91	25.9	0	2	248	0.00	29.677 
22:15	28.2	28.2	28.2	91	25.9	0	4	248	0.00	29.678 
22:20	28.2	28.2	28.2	91	25.9	1	3	248	0.00	29.678 
22:25	28.4	28.4	28.4	91	26.1	0	2	248	0.00	29.678 
22:30	28.4	28.4	28.4	91	26.1	1	4	248	0.00	29.679 
22:35	28.4	28.4	28.4	91	26.1	1	5	248	0.00	29.679 
22:40	28.5	28.5	28.5	91	26.2	1	4	248	0.00	29.679 
22:45	28.7	28.7	28.7	90	26.1	1	3	248	0.00	29.675 
22:50	28.8	28.8	28.8	90	26.2	1	4	248	0.00	29.675 
22:55	28.8	28.8	28.8	90	26.2	1	3	248	0.00	29.675 
23:00	29.0	29.0	29.0	90	26.4	0	2	248	0.00	29.680 
23:05	29.0	29.0	29.0	89	26.2	0	2	248	0.00	29.680 
23:10	29.0	29.0	29.0	89	26.2	0	2	248	0.00	29.680 
23:15	29.0	29.0	29.0	88	25.9	0	2	248	0.00	29.683 
23:20	29.0	29.0	29.0	88	25.9	0	2	248	0.00	29.683 
23:25	29.0	29.0	29.0	87	25.6	0	2	248	0.00	29.683 
23:30	28.8	28.8	28.8	86	25.2	0	3	248	0.00	29.682 
23:35	28.7	28.7	28.7	85	24.8	1	3	248	0.00	29.682 
23:40	28.7	28.7	28.7	83	24.2	1	2	248	0.00	29.682 
23:45	28.5	28.5	28.5	82	23.7	1	3	248	0.00	29.686 
23:50	28.2	28.2	28.2	80	22.8	1	4	248	0.00	29.686 
23:55	28.1	28.1	28.1	78	22.1	1	6	248	0.00	29.686 

CoCoRaHS
IN-AL-39
A2 Web Hosting
Creative Commons License
GoDaddy
search engine by freefind advanced

loaded 2018-11-13 02:51:29 • last modified 2010-11-18 10:43:29
Privacy PolicyDisclaimer
• wx.awcolley.com is powered by PmWiki v.2002016 •
• all content (unless otherwise noted) © 2018 A W Colley